sensor_id;sensor_type;location;lat;lon;timestamp;pressure;altitude;pressure_sealevel;temperature;humidity
77333;BME280;66408;51.326;12.070;2023-05-10T00:00:20;100089.28;;;12.33;58.29
77333;BME280;66408;51.326;12.070;2023-05-10T00:02:49;100092.50;;;12.35;58.11
77333;BME280;66408;51.326;12.070;2023-05-10T00:05:16;100087.53;;;12.28;58.54
77333;BME280;66408;51.326;12.070;2023-05-10T00:07:42;100082.88;;;12.29;58.30
77333;BME280;66408;51.326;12.070;2023-05-10T00:10:11;100080.63;;;12.22;58.73
77333;BME280;66408;51.326;12.070;2023-05-10T00:12:38;100079.97;;;12.16;58.38
77333;BME280;66408;51.326;12.070;2023-05-10T00:15:06;100074.72;;;12.11;59.09
77333;BME280;66408;51.326;12.070;2023-05-10T00:17:33;100070.03;;;11.86;59.47
77333;BME280;66408;51.326;12.070;2023-05-10T00:20:00;100073.53;;;11.78;59.70
77333;BME280;66408;51.326;12.070;2023-05-10T00:22:27;100074.00;;;11.80;59.53
77333;BME280;66408;51.326;12.070;2023-05-10T00:24:53;100075.91;;;11.71;59.86
77333;BME280;66408;51.326;12.070;2023-05-10T00:27:20;100073.00;;;11.67;60.02
77333;BME280;66408;51.326;12.070;2023-05-10T00:29:47;100071.59;;;11.87;59.66
77333;BME280;66408;51.326;12.070;2023-05-10T00:32:14;100072.28;;;11.84;59.35
77333;BME280;66408;51.326;12.070;2023-05-10T00:34:42;100070.19;;;11.98;59.07
77333;BME280;66408;51.326;12.070;2023-05-10T00:37:09;100067.97;;;12.09;58.79
77333;BME280;66408;51.326;12.070;2023-05-10T00:39:37;100065.22;;;12.17;58.54
77333;BME280;66408;51.326;12.070;2023-05-10T00:42:04;100061.84;;;12.12;58.79
77333;BME280;66408;51.326;12.070;2023-05-10T00:44:31;100067.16;;;12.26;58.73
77333;BME280;66408;51.326;12.070;2023-05-10T00:46:58;100062.19;;;12.28;58.87
77333;BME280;66408;51.326;12.070;2023-05-10T00:49:25;100063.94;;;12.32;58.87
77333;BME280;66408;51.326;12.070;2023-05-10T00:51:52;100064.59;;;12.29;59.15
77333;BME280;66408;51.326;12.070;2023-05-10T00:54:19;100066.03;;;12.27;59.17
77333;BME280;66408;51.326;12.070;2023-05-10T00:56:47;100059.16;;;12.20;59.30
77333;BME280;66408;51.326;12.070;2023-05-10T00:59:17;100059.47;;;12.10;59.58
77333;BME280;66408;51.326;12.070;2023-05-10T01:01:44;100051.59;;;12.00;59.84
77333;BME280;66408;51.326;12.070;2023-05-10T01:04:13;100056.72;;;11.93;59.99
77333;BME280;66408;51.326;12.070;2023-05-10T01:06:41;100060.22;;;11.76;60.82
77333;BME280;66408;51.326;12.070;2023-05-10T01:09:08;100055.03;;;11.66;61.04
77333;BME280;66408;51.326;12.070;2023-05-10T01:11:35;100054.06;;;11.62;61.27
77333;BME280;66408;51.326;12.070;2023-05-10T01:14:03;100053.88;;;11.41;62.09
77333;BME280;66408;51.326;12.070;2023-05-10T01:16:35;100048.41;;;11.33;62.30
77333;BME280;66408;51.326;12.070;2023-05-10T01:19:11;100051.63;;;11.35;62.22
77333;BME280;66408;51.326;12.070;2023-05-10T01:21:53;100044.75;;;11.37;61.88
77333;BME280;66408;51.326;12.070;2023-05-10T01:27:25;100044.19;;;11.18;62.45
77333;BME280;66408;51.326;12.070;2023-05-10T01:38:27;100042.47;;;11.31;62.27
77333;BME280;66408;51.326;12.070;2023-05-10T01:41:16;100037.81;;;11.31;62.33
77333;BME280;66408;51.326;12.070;2023-05-10T01:44:06;100044.38;;;11.30;61.94
77333;BME280;66408;51.326;12.070;2023-05-10T01:46:37;100033.81;;;11.29;62.06
77333;BME280;66408;51.326;12.070;2023-05-10T01:49:08;100043.88;;;11.28;62.00
77333;BME280;66408;51.326;12.070;2023-05-10T01:51:39;100035.84;;;11.14;62.31
77333;BME280;66408;51.326;12.070;2023-05-10T01:54:09;100041.59;;;11.13;62.77
77333;BME280;66408;51.326;12.070;2023-05-10T01:56:38;100032.81;;;11.16;62.72
77333;BME280;66408;51.326;12.070;2023-05-10T01:59:11;100039.06;;;11.16;62.80
77333;BME280;66408;51.326;12.070;2023-05-10T02:01:40;100030.56;;;11.09;62.81
77333;BME280;66408;51.326;12.070;2023-05-10T02:04:07;100030.38;;;11.06;63.07
77333;BME280;66408;51.326;12.070;2023-05-10T02:06:38;100035.00;;;11.05;63.16
77333;BME280;66408;51.326;12.070;2023-05-10T02:09:07;100035.19;;;11.09;62.99
77333;BME280;66408;51.326;12.070;2023-05-10T02:11:36;100034.50;;;11.03;62.98
77333;BME280;66408;51.326;12.070;2023-05-10T02:14:06;100035.31;;;11.04;62.93
77333;BME280;66408;51.326;12.070;2023-05-10T02:16:35;100035.00;;;11.05;63.14
77333;BME280;66408;51.326;12.070;2023-05-10T02:19:03;100034.66;;;10.98;63.14
77333;BME280;66408;51.326;12.070;2023-05-10T02:21:31;100030.03;;;10.99;63.04
77333;BME280;66408;51.326;12.070;2023-05-10T02:24:01;100030.03;;;10.99;63.31
77333;BME280;66408;51.326;12.070;2023-05-10T02:26:31;100028.41;;;10.98;63.22
77333;BME280;66408;51.326;12.070;2023-05-10T02:29:01;100027.44;;;10.94;63.68
77333;BME280;66408;51.326;12.070;2023-05-10T02:31:32;100029.88;;;11.04;63.19
77333;BME280;66408;51.326;12.070;2023-05-10T02:34:00;100025.09;;;11.09;63.27
77333;BME280;66408;51.326;12.070;2023-05-10T02:36:28;100027.97;;;11.04;63.18
77333;BME280;66408;51.326;12.070;2023-05-10T02:38:55;100017.75;;;11.10;63.01
77333;BME280;66408;51.326;12.070;2023-05-10T02:41:24;100026.84;;;11.05;63.04
77333;BME280;66408;51.326;12.070;2023-05-10T02:43:56;100027.84;;;11.18;62.86
77333;BME280;66408;51.326;12.070;2023-05-10T02:46:25;100030.56;;;11.18;62.77
77333;BME280;66408;51.326;12.070;2023-05-10T02:48:52;100026.53;;;11.07;62.78
77333;BME280;66408;51.326;12.070;2023-05-10T02:51:20;100026.84;;;11.05;62.83
77333;BME280;66408;51.326;12.070;2023-05-10T02:53:53;100024.59;;;10.99;63.21
77333;BME280;66408;51.326;12.070;2023-05-10T02:56:50;100029.34;;;10.93;63.15
77333;BME280;66408;51.326;12.070;2023-05-10T02:59:17;100022.13;;;10.89;63.03
77333;BME280;66408;51.326;12.070;2023-05-10T03:01:44;100023.50;;;10.77;63.59
77333;BME280;66408;51.326;12.070;2023-05-10T03:04:11;100022.09;;;10.80;63.39
77333;BME280;66408;51.326;12.070;2023-05-10T03:06:38;100021.25;;;10.71;63.60
77333;BME280;66408;51.326;12.070;2023-05-10T03:09:05;100026.31;;;10.64;63.86
77333;BME280;66408;51.326;12.070;2023-05-10T03:17:04;100033.19;;;10.61;64.37
77333;BME280;66408;51.326;12.070;2023-05-10T03:19:48;100033.72;;;10.72;63.96
77333;BME280;66408;51.326;12.070;2023-05-10T03:22:42;100040.63;;;10.78;63.98
77333;BME280;66408;51.326;12.070;2023-05-10T03:25:11;100036.63;;;10.75;63.91
77333;BME280;66408;51.326;12.070;2023-05-10T03:27:40;100038.22;;;10.76;63.89
77333;BME280;66408;51.326;12.070;2023-05-10T03:30:10;100031.84;;;10.81;64.00
77333;BME280;66408;51.326;12.070;2023-05-10T03:32:38;100036.00;;;10.78;63.68
77333;BME280;66408;51.326;12.070;2023-05-10T03:35:12;100025.00;;;10.84;63.44
77333;BME280;66408;51.326;12.070;2023-05-10T03:37:39;100032.78;;;10.76;63.43
77333;BME280;66408;51.326;12.070;2023-05-10T03:40:07;100028.16;;;10.77;63.78
77333;BME280;66408;51.326;12.070;2023-05-10T03:42:34;100031.81;;;10.72;63.98
77333;BME280;66408;51.326;12.070;2023-05-10T03:45:01;100030.06;;;10.76;64.01
77333;BME280;66408;51.326;12.070;2023-05-10T03:47:28;100025.19;;;10.87;64.17
77333;BME280;66408;51.326;12.070;2023-05-10T03:49:56;100027.25;;;10.90;64.52
77333;BME280;66408;51.326;12.070;2023-05-10T03:52:23;100028.06;;;10.91;64.49
77333;BME280;66408;51.326;12.070;2023-05-10T03:54:49;100022.00;;;10.94;64.64
77333;BME280;66408;51.326;12.070;2023-05-10T03:57:16;100027.44;;;10.94;64.92
77333;BME280;66408;51.326;12.070;2023-05-10T03:59:43;100025.69;;;10.98;64.64
77333;BME280;66408;51.326;12.070;2023-05-10T04:02:10;100032.41;;;11.00;64.57
77333;BME280;66408;51.326;12.070;2023-05-10T04:04:37;100031.78;;;11.03;64.80
77333;BME280;66408;51.326;12.070;2023-05-10T04:07:04;100026.41;;;10.81;65.27
77333;BME280;66408;51.326;12.070;2023-05-10T04:09:31;100030.03;;;10.99;65.19
77333;BME280;66408;51.326;12.070;2023-05-10T04:11:58;100022.50;;;11.04;65.12
77333;BME280;66408;51.326;12.070;2023-05-10T04:14:26;100025.41;;;11.08;65.00
77333;BME280;66408;51.326;12.070;2023-05-10T04:16:52;100028.97;;;11.17;64.53
77333;BME280;66408;51.326;12.070;2023-05-10T04:19:19;100031.38;;;11.19;64.71
77333;BME280;66408;51.326;12.070;2023-05-10T04:21:46;100033.81;;;11.29;64.86
77333;BME280;66408;51.326;12.070;2023-05-10T04:24:13;100028.88;;;11.39;64.70
77333;BME280;66408;51.326;12.070;2023-05-10T04:26:40;100026.00;;;11.44;64.62
77333;BME280;66408;51.326;12.070;2023-05-10T04:29:07;100033.19;;;11.32;65.17
77333;BME280;66408;51.326;12.070;2023-05-10T04:31:33;100027.63;;;11.54;64.58
77333;BME280;66408;51.326;12.070;2023-05-10T04:34:03;100034.69;;;11.64;64.71
77333;BME280;66408;51.326;12.070;2023-05-10T04:36:29;100028.34;;;11.77;64.06
77333;BME280;66408;51.326;12.070;2023-05-10T04:38:56;100032.34;;;11.88;63.79
77333;BME280;66408;51.326;12.070;2023-05-10T04:41:23;100032.50;;;12.00;63.97
77333;BME280;66408;51.326;12.070;2023-05-10T04:43:49;100030.91;;;11.99;63.88
77333;BME280;66408;51.326;12.070;2023-05-10T04:46:16;100022.44;;;12.09;63.66
77333;BME280;66408;51.326;12.070;2023-05-10T04:48:43;100028.69;;;12.10;62.89
77333;BME280;66408;51.326;12.070;2023-05-10T04:51:11;100031.56;;;12.13;62.82
77333;BME280;66408;51.326;12.070;2023-05-10T04:53:38;100027.06;;;12.17;62.98
77333;BME280;66408;51.326;12.070;2023-05-10T04:56:05;100031.41;;;12.18;62.68
77333;BME280;66408;51.326;12.070;2023-05-10T04:58:32;100032.84;;;12.33;62.88
77333;BME280;66408;51.326;12.070;2023-05-10T05:01:05;100031.06;;;12.29;62.58
77333;BME280;66408;51.326;12.070;2023-05-10T05:03:32;100027.72;;;12.32;63.00
77333;BME280;66408;51.326;12.070;2023-05-10T05:06:00;100028.31;;;12.37;62.58
77333;BME280;66408;51.326;12.070;2023-05-10T05:08:26;100028.16;;;12.51;62.75
77333;BME280;66408;51.326;12.070;2023-05-10T05:10:53;100029.09;;;12.64;62.07
77333;BME280;66408;51.326;12.070;2023-05-10T05:13:21;100026.69;;;12.71;61.98
77333;BME280;66408;51.326;12.070;2023-05-10T05:15:48;100020.59;;;12.65;61.90
77333;BME280;66408;51.326;12.070;2023-05-10T05:18:14;100029.09;;;12.72;61.48
77333;BME280;66408;51.326;12.070;2023-05-10T05:20:41;100025.88;;;12.70;62.20
77333;BME280;66408;51.326;12.070;2023-05-10T05:23:08;100033.06;;;12.83;61.44
77333;BME280;66408;51.326;12.070;2023-05-10T05:25:35;100025.00;;;12.95;61.49
77333;BME280;66408;51.326;12.070;2023-05-10T05:28:02;100017.94;;;12.94;61.49
77333;BME280;66408;51.326;12.070;2023-05-10T05:30:29;100021.13;;;12.97;61.59
77333;BME280;66408;51.326;12.070;2023-05-10T05:32:56;100025.44;;;13.06;62.10
77333;BME280;66408;51.326;12.070;2023-05-10T05:35:23;100018.19;;;13.10;61.26
77333;BME280;66408;51.326;12.070;2023-05-10T05:37:50;100029.75;;;13.16;61.72
77333;BME280;66408;51.326;12.070;2023-05-10T05:40:16;100028.16;;;13.15;61.53
77333;BME280;66408;51.326;12.070;2023-05-10T05:42:43;100035.16;;;13.24;61.57
77333;BME280;66408;51.326;12.070;2023-05-10T05:45:10;100026.63;;;13.35;61.07
77333;BME280;66408;51.326;12.070;2023-05-10T05:47:39;100025.63;;;13.39;60.59
77333;BME280;66408;51.326;12.070;2023-05-10T05:50:07;100024.16;;;13.42;61.28
77333;BME280;66408;51.326;12.070;2023-05-10T05:52:33;100029.63;;;13.42;59.87
77333;BME280;66408;51.326;12.070;2023-05-10T05:55:00;100024.91;;;13.51;60.35
77333;BME280;66408;51.326;12.070;2023-05-10T05:57:27;100023.69;;;13.69;59.89
77333;BME280;66408;51.326;12.070;2023-05-10T05:59:54;100037.53;;;13.85;60.27
77333;BME280;66408;51.326;12.070;2023-05-10T06:02:20;100036.78;;;13.76;60.24
77333;BME280;66408;51.326;12.070;2023-05-10T06:04:47;100039.03;;;13.82;60.10
77333;BME280;66408;51.326;12.070;2023-05-10T06:07:14;100035.56;;;13.94;59.87
77333;BME280;66408;51.326;12.070;2023-05-10T06:09:42;100042.97;;;13.93;59.58
77333;BME280;66408;51.326;12.070;2023-05-10T06:12:08;100047.22;;;14.03;59.33
77333;BME280;66408;51.326;12.070;2023-05-10T06:14:35;100044.41;;;13.91;60.33
77333;BME280;66408;51.326;12.070;2023-05-10T06:17:01;100046.41;;;14.02;59.98
77333;BME280;66408;51.326;12.070;2023-05-10T06:19:30;100045.22;;;14.12;59.77
77333;BME280;66408;51.326;12.070;2023-05-10T06:21:56;100046.47;;;14.15;59.88
77333;BME280;66408;51.326;12.070;2023-05-10T06:24:23;100043.22;;;14.21;59.68
77333;BME280;66408;51.326;12.070;2023-05-10T06:26:49;100052.38;;;14.37;59.60
77333;BME280;66408;51.326;12.070;2023-05-10T06:29:16;100055.44;;;14.45;60.25
77333;BME280;66408;51.326;12.070;2023-05-10T06:31:43;100054.22;;;14.54;60.29
77333;BME280;66408;51.326;12.070;2023-05-10T06:34:10;100053.56;;;14.69;58.34
77333;BME280;66408;51.326;12.070;2023-05-10T06:36:37;100050.63;;;14.74;57.35
77333;BME280;66408;51.326;12.070;2023-05-10T06:39:04;100061.06;;;14.93;57.91
77333;BME280;66408;51.326;12.070;2023-05-10T06:41:31;100055.69;;;15.09;57.56
77333;BME280;66408;51.326;12.070;2023-05-10T06:43:58;100064.38;;;15.11;56.43
77333;BME280;66408;51.326;12.070;2023-05-10T06:46:24;100065.78;;;15.29;56.72
77333;BME280;66408;51.326;12.070;2023-05-10T06:48:51;100069.56;;;15.61;56.38
77333;BME280;66408;51.326;12.070;2023-05-10T06:51:17;100062.47;;;15.60;56.15
77333;BME280;66408;51.326;12.070;2023-05-10T06:53:44;100059.16;;;15.79;56.02
77333;BME280;66408;51.326;12.070;2023-05-10T06:56:10;100066.81;;;15.73;55.78
77333;BME280;66408;51.326;12.070;2023-05-10T06:58:37;100069.47;;;15.70;56.14
77333;BME280;66408;51.326;12.070;2023-05-10T07:01:05;100068.84;;;15.52;55.92
77333;BME280;66408;51.326;12.070;2023-05-10T07:03:31;100062.38;;;15.44;57.07
77333;BME280;66408;51.326;12.070;2023-05-10T07:06:02;100074.44;;;15.07;57.18
77333;BME280;66408;51.326;12.070;2023-05-10T07:08:43;100072.03;;;15.05;58.35
77333;BME280;66408;51.326;12.070;2023-05-10T07:11:10;100073.16;;;15.04;58.40
77333;BME280;66408;51.326;12.070;2023-05-10T07:13:36;100074.75;;;14.93;59.49
77333;BME280;66408;51.326;12.070;2023-05-10T07:16:05;100087.25;;;14.82;58.99
77333;BME280;66408;51.326;12.070;2023-05-10T07:18:32;100090.50;;;14.63;59.35
77333;BME280;66408;51.326;12.070;2023-05-10T07:20:59;100086.94;;;14.63;59.80
77333;BME280;66408;51.326;12.070;2023-05-10T07:23:25;100088.16;;;14.53;60.11
77333;BME280;66408;51.326;12.070;2023-05-10T07:25:52;100094.06;;;14.43;61.14
77333;BME280;66408;51.326;12.070;2023-05-10T07:28:19;100088.16;;;14.53;61.87
77333;BME280;66408;51.326;12.070;2023-05-10T07:30:46;100094.78;;;14.52;61.70
77333;BME280;66408;51.326;12.070;2023-05-10T07:33:14;100095.72;;;14.56;60.98
77333;BME280;66408;51.326;12.070;2023-05-10T07:35:40;100095.72;;;14.56;61.26
77333;BME280;66408;51.326;12.070;2023-05-10T07:38:07;100103.19;;;14.47;61.18
77333;BME280;66408;51.326;12.070;2023-05-10T07:40:34;100099.44;;;14.52;60.59
77333;BME280;66408;51.326;12.070;2023-05-10T07:43:00;100105.53;;;14.57;60.86
77333;BME280;66408;51.326;12.070;2023-05-10T07:45:28;100100.78;;;14.66;62.40
77333;BME280;66408;51.326;12.070;2023-05-10T07:47:54;100104.22;;;14.43;62.77
77333;BME280;66408;51.326;12.070;2023-05-10T07:50:21;100107.84;;;14.47;63.81
77333;BME280;66408;51.326;12.070;2023-05-10T07:52:48;100102.78;;;14.57;63.68
77333;BME280;66408;51.326;12.070;2023-05-10T07:55:14;100106.38;;;14.70;63.61
77333;BME280;66408;51.326;12.070;2023-05-10T07:57:41;100108.59;;;14.56;63.75
77333;BME280;66408;51.326;12.070;2023-05-10T08:00:08;100103.97;;;14.48;64.02
77333;BME280;66408;51.326;12.070;2023-05-10T08:02:35;100108.41;;;14.40;64.10
77333;BME280;66408;51.326;12.070;2023-05-10T08:05:02;100114.50;;;14.46;64.12
77333;BME280;66408;51.326;12.070;2023-05-10T08:07:29;100121.34;;;14.52;64.43
77333;BME280;66408;51.326;12.070;2023-05-10T08:09:55;100125.63;;;14.41;65.46
77333;BME280;66408;51.326;12.070;2023-05-10T08:12:22;100123.13;;;14.48;66.71
77333;BME280;66408;51.326;12.070;2023-05-10T08:14:48;100128.66;;;14.39;67.13
77333;BME280;66408;51.326;12.070;2023-05-10T08:17:15;100129.53;;;14.31;67.03
77333;BME280;66408;51.326;12.070;2023-05-10T08:19:43;100133.97;;;14.15;68.86
77333;BME280;66408;51.326;12.070;2023-05-10T08:22:10;100133.72;;;14.08;68.65
77333;BME280;66408;51.326;12.070;2023-05-10T08:24:36;100132.44;;;14.05;70.09
77333;BME280;66408;51.326;12.070;2023-05-10T08:27:05;100130.25;;;14.19;70.38
77333;BME280;66408;51.326;12.070;2023-05-10T08:29:31;100130.81;;;14.33;69.47
77333;BME280;66408;51.326;12.070;2023-05-10T08:32:15;100134.44;;;14.46;69.66
77333;BME280;66408;51.326;12.070;2023-05-10T08:34:41;100131.22;;;14.44;69.45
77333;BME280;66408;51.326;12.070;2023-05-10T08:37:08;100143.03;;;14.57;69.82
77333;BME280;66408;51.326;12.070;2023-05-10T08:39:35;100142.50;;;14.63;69.20
77333;BME280;66408;51.326;12.070;2023-05-10T08:42:04;100142.72;;;14.58;69.44
77333;BME280;66408;51.326;12.070;2023-05-10T08:44:32;100153.16;;;14.77;70.30
77333;BME280;66408;51.326;12.070;2023-05-10T08:47:04;100155.88;;;14.77;70.09
77333;BME280;66408;51.326;12.070;2023-05-10T08:49:32;100158.63;;;14.77;70.52
77333;BME280;66408;51.326;12.070;2023-05-10T08:52:02;100160.63;;;14.89;69.86
77333;BME280;66408;51.326;12.070;2023-05-10T08:54:31;100159.16;;;14.91;69.49
77333;BME280;66408;51.326;12.070;2023-05-10T08:56:58;100159.81;;;14.88;69.32
77333;BME280;66408;51.326;12.070;2023-05-10T08:59:24;100170.03;;;14.79;69.65
77333;BME280;66408;51.326;12.070;2023-05-10T09:01:52;100171.06;;;14.54;70.57
77333;BME280;66408;51.326;12.070;2023-05-10T09:04:20;100179.47;;;14.69;70.37
77333;BME280;66408;51.326;12.070;2023-05-10T09:06:47;100177.66;;;14.73;70.02
77333;BME280;66408;51.326;12.070;2023-05-10T09:09:14;100175.47;;;14.67;70.72
77333;BME280;66408;51.326;12.070;2023-05-10T09:11:43;100178.28;;;14.58;70.75
77333;BME280;66408;51.326;12.070;2023-05-10T09:14:09;100181.13;;;14.62;70.68
77333;BME280;66408;51.326;12.070;2023-05-10T09:16:39;100179.19;;;14.62;71.23
77333;BME280;66408;51.326;12.070;2023-05-10T09:19:06;100186.13;;;14.60;71.55
77333;BME280;66408;51.326;12.070;2023-05-10T09:21:35;100190.28;;;14.66;71.36
77333;BME280;66408;51.326;12.070;2023-05-10T09:24:05;100191.59;;;14.60;72.93
77333;BME280;66408;51.326;12.070;2023-05-10T09:26:32;100196.63;;;14.58;72.27
77333;BME280;66408;51.326;12.070;2023-05-10T09:28:59;100190.59;;;14.64;72.85
77333;BME280;66408;51.326;12.070;2023-05-10T09:31:52;100184.19;;;14.81;72.13
77333;BME280;66408;51.326;12.070;2023-05-10T09:34:30;100190.44;;;15.02;72.77
77333;BME280;66408;51.326;12.070;2023-05-10T09:37:00;100202.38;;;15.19;72.17
77333;BME280;66408;51.326;12.070;2023-05-10T09:39:38;100199.19;;;15.17;73.27
77333;BME280;66408;51.326;12.070;2023-05-10T09:42:07;100207.56;;;15.32;72.77
77333;BME280;66408;51.326;12.070;2023-05-10T09:44:34;100205.03;;;15.27;72.65
77333;BME280;66408;51.326;12.070;2023-05-10T09:47:01;100211.03;;;15.21;73.28
77333;BME280;66408;51.326;12.070;2023-05-10T09:49:28;100215.28;;;15.18;74.26
77333;BME280;66408;51.326;12.070;2023-05-10T09:52:06;100213.53;;;15.14;74.37
77333;BME280;66408;51.326;12.070;2023-05-10T09:54:34;100209.63;;;15.02;74.39
77333;BME280;66408;51.326;12.070;2023-05-10T09:57:01;100213.72;;;15.08;74.98
77333;BME280;66408;51.326;12.070;2023-05-10T09:59:28;100213.88;;;15.12;74.57
77333;BME280;66408;51.326;12.070;2023-05-10T10:01:59;100208.53;;;15.16;74.60
77333;BME280;66408;51.326;12.070;2023-05-10T10:04:26;100210.97;;;15.29;74.85
77333;BME280;66408;51.326;12.070;2023-05-10T10:07:00;100217.34;;;15.33;74.25
77333;BME280;66408;51.326;12.070;2023-05-10T10:09:28;100222.78;;;15.21;75.03
77333;BME280;66408;51.326;12.070;2023-05-10T10:11:55;100228.34;;;15.45;75.82
77333;BME280;66408;51.326;12.070;2023-05-10T10:14:23;100230.88;;;15.51;74.82
77333;BME280;66408;51.326;12.070;2023-05-10T10:16:51;100228.88;;;15.60;75.06
77333;BME280;66408;51.326;12.070;2023-05-10T10:19:33;100227.66;;;15.69;74.06
77333;BME280;66408;51.326;12.070;2023-05-10T10:22:01;100222.53;;;15.80;74.46
77333;BME280;66408;51.326;12.070;2023-05-10T10:24:27;100215.78;;;15.77;75.57
77333;BME280;66408;51.326;12.070;2023-05-10T10:26:58;100213.03;;;15.77;74.60
77333;BME280;66408;51.326;12.070;2023-05-10T10:29:33;100228.00;;;15.80;75.77
77333;BME280;66408;51.326;12.070;2023-05-10T10:34:34;100226.88;;;15.93;74.76
77333;BME280;66408;51.326;12.070;2023-05-10T10:37:05;100226.31;;;16.00;74.02
77333;BME280;66408;51.326;12.070;2023-05-10T10:39:32;100225.75;;;15.94;74.34
77333;BME280;66408;51.326;12.070;2023-05-10T10:41:59;100230.75;;;15.92;74.80
77333;BME280;66408;51.326;12.070;2023-05-10T10:49:37;100240.59;;;16.05;75.72
77333;BME280;66408;51.326;12.070;2023-05-10T10:54:50;100239.81;;;16.17;75.21
77333;BME280;66408;51.326;12.070;2023-05-10T10:57:18;100242.75;;;16.24;75.91
77333;BME280;66408;51.326;12.070;2023-05-10T10:59:45;100248.25;;;16.12;74.73
77333;BME280;66408;51.326;12.070;2023-05-10T11:03:18;100240.59;;;16.05;75.05
77333;BME280;66408;51.326;12.070;2023-05-10T11:05:40;100235.66;;;15.99;73.66
77333;BME280;66408;51.326;12.070;2023-05-10T11:10:40;100240.59;;;16.05;73.96
77333;BME280;66408;51.326;12.070;2023-05-10T11:13:08;100244.56;;;16.08;74.35
77333;BME280;66408;51.326;12.070;2023-05-10T11:15:39;100248.59;;;16.10;74.42
77333;BME280;66408;51.326;12.070;2023-05-10T11:20:44;100242.53;;;16.17;74.73
77333;BME280;66408;51.326;12.070;2023-05-10T11:23:16;100241.16;;;16.23;74.84
77333;BME280;66408;51.326;12.070;2023-05-10T11:25:48;100249.16;;;16.28;74.08
77333;BME280;66408;51.326;12.070;2023-05-10T11:28:17;100251.56;;;16.30;74.03
77333;BME280;66408;51.326;12.070;2023-05-10T11:30:45;100240.25;;;16.43;74.03
77333;BME280;66408;51.326;12.070;2023-05-10T11:33:18;100250.75;;;16.41;74.42
77333;BME280;66408;51.326;12.070;2023-05-10T11:35:46;100247.22;;;16.41;73.85
77333;BME280;66408;51.326;12.070;2023-05-10T11:38:13;100255.78;;;16.39;74.38
77333;BME280;66408;51.326;12.070;2023-05-10T11:40:40;100250.06;;;16.32;74.49
77333;BME280;66408;51.326;12.070;2023-05-10T11:43:09;100250.31;;;16.27;74.97
77333;BME280;66408;51.326;12.070;2023-05-10T11:45:37;100254.19;;;16.26;75.46
77333;BME280;66408;51.326;12.070;2023-05-10T11:48:04;100263.56;;;16.25;75.96
77333;BME280;66408;51.326;12.070;2023-05-10T11:50:31;100261.03;;;16.32;76.41
77333;BME280;66408;51.326;12.070;2023-05-10T11:52:59;100260.59;;;16.30;77.03
77333;BME280;66408;51.326;12.070;2023-05-10T11:55:25;100259.00;;;16.29;77.04
77333;BME280;66408;51.326;12.070;2023-05-10T11:57:54;100254.53;;;16.37;76.63
77333;BME280;66408;51.326;12.070;2023-05-10T12:00:21;100256.25;;;16.41;76.58
77333;BME280;66408;51.326;12.070;2023-05-10T12:02:48;100252.13;;;16.47;76.50
77333;BME280;66408;51.326;12.070;2023-05-10T12:05:15;100264.03;;;16.39;76.71
77333;BME280;66408;51.326;12.070;2023-05-10T12:07:42;100265.16;;;16.38;76.70
77333;BME280;66408;51.326;12.070;2023-05-10T12:10:11;100269.84;;;16.38;76.90
77333;BME280;66408;51.326;12.070;2023-05-10T12:12:45;100283.69;;;16.29;76.59
77333;BME280;66408;51.326;12.070;2023-05-10T12:15:22;100285.06;;;16.23;76.56
77333;BME280;66408;51.326;12.070;2023-05-10T12:17:50;100292.31;;;15.82;76.78
77333;BME280;66408;51.326;12.070;2023-05-10T12:20:19;100291.84;;;15.48;77.93
77333;BME280;66408;51.326;12.070;2023-05-10T12:22:47;100297.22;;;15.44;78.13
77333;BME280;66408;51.326;12.070;2023-05-10T12:25:15;100292.53;;;15.44;78.32
77333;BME280;66408;51.326;12.070;2023-05-10T12:27:54;100289.06;;;15.35;78.63
77333;BME280;66408;51.326;12.070;2023-05-10T12:30:28;100296.75;;;15.42;78.22
77333;BME280;66408;51.326;12.070;2023-05-10T12:33:12;100301.97;;;15.56;78.83
77333;BME280;66408;51.326;12.070;2023-05-10T12:35:47;100305.75;;;15.63;78.44
77333;BME280;66408;51.326;12.070;2023-05-10T12:41:00;100302.56;;;15.73;78.66
77333;BME280;66408;51.326;12.070;2023-05-10T12:43:27;100307.75;;;15.87;77.40
77333;BME280;66408;51.326;12.070;2023-05-10T12:45:53;100308.91;;;15.98;77.51
77333;BME280;66408;51.326;12.070;2023-05-10T12:48:20;100312.72;;;16.06;77.80
77333;BME280;66408;51.326;12.070;2023-05-10T12:50:47;100305.75;;;16.21;77.19
77333;BME280;66408;51.326;12.070;2023-05-10T12:53:15;100313.25;;;15.99;77.27
77333;BME280;66408;51.326;12.070;2023-05-10T12:55:42;100305.66;;;16.17;77.53
77333;BME280;66408;51.326;12.070;2023-05-10T12:58:09;100306.22;;;16.35;77.46
77333;BME280;66408;51.326;12.070;2023-05-10T13:00:39;100307.25;;;16.42;76.42
77333;BME280;66408;51.326;12.070;2023-05-10T13:03:05;100309.75;;;16.47;76.20
77333;BME280;66408;51.326;12.070;2023-05-10T13:05:32;100305.66;;;16.29;76.28
77333;BME280;66408;51.326;12.070;2023-05-10T13:07:59;100312.16;;;16.25;77.38
77333;BME280;66408;51.326;12.070;2023-05-10T13:10:27;100309.28;;;16.33;77.39
77333;BME280;66408;51.326;12.070;2023-05-10T13:12:54;100314.56;;;16.26;76.55
77333;BME280;66408;51.326;12.070;2023-05-10T13:15:21;100311.34;;;16.48;76.31
77333;BME280;66408;51.326;12.070;2023-05-10T13:17:47;100305.41;;;16.59;75.99
77333;BME280;66408;51.326;12.070;2023-05-10T13:20:14;100313.44;;;16.64;75.03
77333;BME280;66408;51.326;12.070;2023-05-10T13:22:43;100305.88;;;16.73;74.89